Latest Weather Observations for Eucla

IDW60801

Issued at 11:02 pm WST Tuesday 31 March 2015 (issued every 30 minutes, with the page automatically refreshed every 10 minutes)

About weather observations | Map of weather stations | Latest weather observations for WA | Other Formats
Station Details ID: 011003 Name: EUCLA Lat: -31.68 Lon: 128.90 Height: 93.1 m
Data from the previous 72 hours. | See also: Recent months at Eucla
Date/Time
WST
Temp
°C
App
Temp
°C
Dew
Point
Rel
Hum
%
Delta-T
°C
Wind Press
QNH
hPa
Press
MSL
hPa
Rain
since 9 am
mm
Dir
 
Spd
km/h
Gust
km/h
Spd
kts
Gust
kts
31/11:00pm 19.7 18.9 15.1 75 2.7 N 13 17 7 9 1016.2 1015.9 0.4
31/10:30pm 19.6 18.6 15.5 77 2.4 N 15 19 8 10 1016.5 1016.2 0.4
31/10:00pm 19.3 18.4 15.8 80 2.1 N 15 19 8 10 1016.9 1016.6 0.4
31/09:30pm 18.6 18.2 16.2 86 1.4 N 13 17 7 9 1017.6 1017.3 0.4
31/09:00pm 18.6 18.6 16.2 86 1.4 N 11 11 6 6 1018.1 1017.8 0.2
31/08:30pm 18.8 18.7 15.9 83 1.7 N 11 13 6 7 1017.9 1017.6 0.2
31/08:00pm 19.8 19.3 14.8 73 2.9 NNE 11 13 6 7 1017.7 1017.4 0.2
31/07:30pm 19.9 18.9 14.5 71 3.2 NNE 13 15 7 8 1017.5 1017.2 0.2
31/07:00pm 19.3 19.0 15.4 78 2.3 NNE 11 15 6 8 1017.4 1017.1 0.2
31/06:30pm 20.0 20.0 15.2 74 2.8 NNW 9 11 5 6 1017.5 1017.2 0.2
31/06:00pm 20.8 20.8 14.2 66 3.8 N 7 9 4 5 1017.1 1016.8 0.2
31/05:30pm 21.0 21.3 15.1 69 3.5 NNW 7 9 4 5 1017.4 1017.1 0.2
31/05:00pm 21.9 21.6 14.5 63 4.4 W 9 11 5 6 1017.2 1016.9 0.2
31/04:30pm 22.6 22.1 13.7 57 5.2 WSW 9 13 5 7 1016.8 1016.5 0.2
31/04:00pm 23.4 22.0 13.3 53 5.9 SW 13 17 7 9 1016.4 1016.1 0.2
31/03:30pm 23.7 22.5 12.7 50 6.3 SW 11 15 6 8 1016.2 1015.9 0.2
31/03:00pm 24.3 22.7 12.9 49 6.6 SW 13 17 7 9 1016.3 1016.0 0.2
31/02:30pm 24.3 23.1 12.9 49 6.6 W 11 19 6 10 1016.3 1016.0 0.2
31/02:00pm 24.2 23.1 13.1 50 6.4 W 11 17 6 9 1016.3 1016.0 0.2
31/01:30pm 23.5 24.6 17.9 71 3.5 SW 9 13 5 7 1016.2 1015.9 0.2
31/01:00pm 23.1 24.3 18.2 74 3.1 S 9 11 5 6 1015.9 1015.6 0.2
31/12:30pm 23.7 24.5 18.1 71 3.5 S 11 15 6 8 1015.8 1015.5 0.2
31/12:00pm 25.6 24.0 13.8 48 7.0 SW 15 20 8 11 1016.0 1015.7 0.2
31/11:30am 28.1 26.3 13.2 39 8.8 W 15 22 8 12 1016.3 1016.0 0.2
31/11:00am 28.1 26.8 13.6 41 8.6 WNW 13 20 7 11 1016.6 1016.3 0.2
31/10:30am 26.7 25.1 13.8 45 7.7 NNW 15 26 8 14 1016.6 1016.3 0.2
31/10:00am 24.0 23.5 15.0 57 5.4 NW 11 17 6 9 1017.3 1017.0 0.0
31/09:30am 22.0 22.1 15.4 66 4.0 NW 9 17 5 9 1017.5 1017.2 0.0
31/09:00am 21.8 21.0 16.1 70 3.4 NNW 15 22 8 12 1017.5 1017.2 0.2
31/08:30am 21.5 21.2 16.5 73 3.0 NNE 13 19 7 10 1016.8 1016.5 0.2
31/08:00am 20.5 21.2 17.9 85 1.6 NE 11 15 6 8 1017.4 1017.1 0.2
31/07:30am 20.0 21.2 18.3 90 1.1 ENE 9 13 5 7 1017.3 1017.0 0.2
31/07:00am 19.7 20.6 18.5 93 0.7 ENE 11 15 6 8 1017.4 1017.1 0.2
31/06:30am 19.2 20.5 18.5 96 0.4 ENE 9 13 5 7 1017.6 1017.3 0.2
31/06:00am 17.9 19.1 17.3 96 0.4 NE 7 7 4 4 1017.8 1017.5 0.2
31/05:30am 17.4 18.4 16.8 96 0.4 E 7 9 4 5 1017.7 1017.4 0.2
31/05:00am 17.9 19.1 17.3 96 0.4 E 7 9 4 5 1017.6 1017.3 0.2
31/04:30am 18.5 19.5 17.8 96 0.4 ESE 9 11 5 6 1017.6 1017.3 0.2
31/04:00am 18.3 19.3 17.7 96 0.4 SE 9 11 5 6 1017.4 1017.1 0.2
31/03:30am 18.2 19.7 17.6 96 0.4 S 6 11 3 6 1017.3 1017.0 0.2
31/03:00am 18.0 20.2 17.4 96 0.4 ENE 2 7 1 4 1017.4 1017.1 0.2
31/02:30am 18.1 19.4 17.5 96 0.4 ENE 7 13 4 7 1017.6 1017.3 0.2
31/02:00am 17.9 19.0 17.1 95 0.5 ENE 7 13 4 7 1018.1 1017.8 0.2
31/01:30am 17.9 19.0 17.1 95 0.5 E 7 11 4 6 1018.5 1018.2 0.2
31/01:00am 18.3 19.2 17.5 95 0.5 E 9 11 5 6 1018.8 1018.5 0.2
31/12:30am 18.5 19.5 17.7 95 0.5 E 9 13 5 7 1019.1 1018.8 0.2
31/12:00am 18.6 20.0 17.8 95 0.5 ESE 7 13 4 7 1019.4 1019.1 0.2
 
Date/Time
WST
Temp
°C
App
Temp
°C
Dew
Point
Rel
Hum
%
Delta-T
°C
Wind Press
QNH
hPa
Press
MSL
hPa
Rain
since 9 am
mm
Dir
 
Spd
km/h
Gust
km/h
Spd
kts
Gust
kts
30/11:30pm 18.7 19.4 17.9 95 0.5 E 11 15 6 8 1019.7 1019.4 0.2
30/11:00pm 18.6 19.5 17.6 94 0.6 ESE 9 13 5 7 1019.8 1019.5 0.2
30/10:30pm 18.7 18.9 17.7 94 0.6 E 13 22 7 12 1019.9 1019.6 0.2
30/10:00pm 18.7 19.3 17.7 94 0.6 ESE 11 17 6 9 1020.4 1020.1 0.2
30/09:30pm 18.7 18.9 17.7 94 0.6 E 13 19 7 10 1020.7 1020.4 0.2
30/09:00pm 18.6 18.8 17.6 94 0.6 E 13 19 7 10 1020.8 1020.5 0.2
30/08:30pm 18.7 18.9 17.7 94 0.6 ESE 13 19 7 10 1020.9 1020.6 0.2
30/08:00pm 18.7 18.8 17.5 93 0.7 ESE 13 19 7 10 1021.1 1020.8 0.2
30/07:30pm 18.7 18.5 17.5 93 0.7 E 15 20 8 11 1021.1 1020.8 0.2
30/07:00pm 18.9 18.7 17.6 92 0.8 ESE 15 19 8 10 1021.0 1020.7 0.2
30/06:30pm 18.9 18.6 17.4 91 0.9 ESE 15 22 8 12 1020.6 1020.3 0.2
30/06:00pm 19.2 19.2 17.3 89 1.2 ESE 13 19 7 10 1020.5 1020.2 0.2
30/05:30pm 19.4 19.1 17.4 88 1.2 ESE 15 24 8 13 1020.0 1019.7 0.2
30/05:00pm 19.7 19.0 17.3 86 1.5 ESE 17 26 9 14 1019.9 1019.6 0.2
30/04:30pm 20.2 18.9 17.2 83 1.8 ESE 20 30 11 16 1020.0 1019.7 0.2
30/04:00pm 20.9 20.0 16.9 78 2.4 ESE 17 28 9 15 1019.9 1019.6 0.2
30/03:30pm 21.2 19.8 17.0 77 2.6 ESE 20 32 11 17 1019.7 1019.4 0.2
30/03:00pm 21.6 20.1 16.8 74 2.9 SE 20 30 11 16 1019.9 1019.6 0.2
30/02:30pm 22.4 21.1 16.9 71 3.4 ESE 19 28 10 15 1019.9 1019.6 0.2
30/02:00pm 23.0 21.9 16.3 66 4.1 SE 17 30 9 16 1020.3 1020.0 0.2
30/01:30pm 23.1 21.7 16.6 67 4.0 SE 19 28 10 15 1020.5 1020.2 0.2
30/01:00pm 22.9 21.7 16.0 65 4.2 ESE 17 26 9 14 1020.9 1020.6 0.2
30/12:30pm 23.4 22.6 16.2 64 4.4 SE 15 22 8 12 1021.1 1020.8 0.2
30/12:00pm 23.1 21.8 15.9 64 4.4 SE 17 26 9 14 1021.6 1021.3 0.2
30/11:30am 23.3 22.1 16.1 64 4.4 SE 17 26 9 14 1022.0 1021.7 0.2
30/11:00am 23.2 22.1 16.3 65 4.2 SE 17 20 9 11 1022.3 1022.0 0.2
30/10:30am 23.7 22.7 16.5 64 4.4 SE 17 26 9 14 1022.5 1022.2 0.2
30/10:00am 23.0 21.9 16.3 66 4.1 ESE 17 24 9 13 1022.6 1022.3 0.2
30/09:30am 23.4 22.4 16.7 66 4.1 SE 17 24 9 13 1022.8 1022.5 0.2
30/09:00am 22.5 21.7 16.1 67 3.9 SE 15 22 8 12 1023.0 1022.7 0.0
30/08:30am 22.7 22.8 16.5 68 3.8 ENE 11 19 6 10 1023.1 1022.8 0.0
30/08:00am 21.4 20.8 15.7 70 3.4 ESE 13 17 7 9 1023.2 1022.9 0.0
30/07:30am 20.7 20.3 16.3 76 2.7 ESE 13 17 7 9 1023.1 1022.8 0.0
30/07:00am 20.1 20.7 16.7 81 2.1 E 9 13 5 7 1023.1 1022.8 0.0
30/06:30am 18.7 19.4 17.0 90 1.0 E 9 13 5 7 1022.7 1022.4 0.0
30/06:00am 17.3 17.7 16.3 94 0.6 E 9 11 5 6 1022.4 1022.1 0.0
30/05:30am 16.9 17.2 15.9 94 0.6 E 9 11 5 6 1022.3 1022.0 0.0
30/05:00am 17.4 17.8 16.4 94 0.6 ESE 9 11 5 6 1022.0 1021.7 0.0
30/04:30am 17.5 17.9 16.4 93 0.7 ESE 9 11 5 6 1021.8 1021.5 0.0
30/04:00am 17.5 17.9 16.4 93 0.7 ESE 9 11 5 6 1021.6 1021.3 0.0
30/03:30am 17.4 17.8 16.3 93 0.7 ESE 9 13 5 7 1021.4 1021.1 0.0
30/03:00am 17.1 17.4 16.0 93 0.6 ESE 9 11 5 6 1021.5 1021.2 0.0
30/02:30am 16.8 17.0 15.7 93 0.6 E 9 11 5 6 1021.6 1021.3 0.0
30/02:00am 16.8 17.3 15.5 92 0.8 E 7 9 4 5 1021.7 1021.4 0.0
30/01:30am 17.5 17.8 16.0 91 0.9 E 9 11 5 6 1021.8 1021.5 0.0
30/01:00am 17.8 18.2 16.3 91 0.9 E 9 11 5 6 1022.1 1021.8 0.0
30/12:30am 17.9 18.3 16.4 91 0.9 E 9 13 5 7 1022.3 1022.0 0.0
30/12:00am 17.9 18.3 16.4 91 0.9 E 9 13 5 7 1022.5 1022.2 0.0
 
Date/Time
WST
Temp
°C
App
Temp
°C
Dew
Point
Rel
Hum
%
Delta-T
°C
Wind Press
QNH
hPa
Press
MSL
hPa
Rain
since 9 am
mm
Dir
 
Spd
km/h
Gust
km/h
Spd
kts
Gust
kts
29/11:30pm 17.9 18.4 16.6 92 0.8 ESE 9 11 5 6 1022.6 1022.3 0.0
29/11:00pm 17.7 18.1 16.2 91 0.9 ESE 9 11 5 6 1022.7 1022.4 0.0
29/10:30pm 18.0 18.6 16.7 92 0.8 ESE 9 13 5 7 1022.6 1022.3 0.0
29/10:00pm 17.9 18.3 16.4 91 0.9 ESE 9 13 5 7 1022.9 1022.6 0.0
29/09:30pm 18.0 18.1 16.5 91 0.9 SE 11 13 6 7 1023.1 1022.8 0.0
29/09:00pm 18.2 18.3 16.5 90 1.0 SE 11 15 6 8 1022.9 1022.6 0.0
29/08:30pm 18.3 18.0 16.5 89 1.1 SE 13 17 7 9 1023.2 1022.9 0.0
29/08:00pm 18.3 17.9 16.3 88 1.2 SE 13 19 7 10 1023.1 1022.8 0.0
29/07:30pm 18.6 17.8 16.2 86 1.4 SE 15 22 8 12 1022.9 1022.6 0.0
29/07:00pm 18.7 18.3 16.1 85 1.5 SSE 13 19 7 10 1022.7 1022.4 0.0
29/06:30pm 18.9 18.1 16.1 84 1.7 SSE 15 20 8 11 1022.6 1022.3 0.0
29/06:00pm 18.9 18.0 15.9 83 1.8 SSE 15 22 8 12 1022.1 1021.8 0.0
29/05:30pm 19.3 18.5 16.2 82 1.9 SSE 15 20 8 11 1022.1 1021.8 0.0
29/05:00pm 20.0 19.2 16.2 79 2.3 SSE 15 24 8 13 1021.8 1021.5 0.0
29/04:30pm 20.6 19.4 16.2 76 2.7 SSE 17 26 9 14 1021.5 1021.2 0.0
29/04:00pm 21.4 20.2 16.1 72 3.2 SE 17 24 9 13 1021.4 1021.1 0.0
29/03:30pm 21.8 20.9 15.9 69 3.6 SSE 15 20 8 11 1021.4 1021.1 0.0
29/03:00pm 22.0 20.7 14.9 64 4.2 SE 15 22 8 12 1021.4 1021.1 0.0
29/02:30pm 22.6 21.4 15.0 62 4.5 SE 15 22 8 12 1021.2 1020.9 0.0
29/02:00pm 22.6 20.8 14.4 60 4.8 SE 17 26 9 14 1020.9 1020.6 0.0
29/01:30pm 23.0 21.5 15.3 62 4.6 SE 17 24 9 13 1021.0 1020.7 0.0
29/01:00pm 22.9 21.8 14.2 58 5.1 SE 13 20 7 11 1021.2 1020.9 0.0
29/12:30pm 22.9 22.1 15.0 61 4.7 SE 13 20 7 11 1021.6 1021.3 0.0
29/12:00pm 23.0 21.7 14.8 60 4.9 SE 15 20 8 11 1021.9 1021.6 0.0
29/11:30am 22.4 21.4 14.5 61 4.7 SE 13 19 7 10 1022.3 1022.0 0.0
29/11:00am 22.8 22.1 15.4 63 4.4 SE 13 22 7 12 1022.7 1022.4 0.0
29/10:30am 22.6 22.1 15.9 66 4.1 SE 13 19 7 10 1022.8 1022.5 0.0
29/10:00am 22.1 21.5 15.7 67 3.8 SE 13 19 7 10 1022.8 1022.5 0.0
29/09:30am 21.3 20.9 15.2 68 3.6 SE 11 15 6 8 1023.1 1022.8 0.0
29/09:00am 21.3 20.6 15.4 69 3.5 SE 13 17 7 9 1023.1 1022.8 2.2
29/08:30am 21.4 21.7 16.1 72 3.2 SE 9 15 5 8 1023.0 1022.7 2.2
29/08:00am 20.7 21.0 16.9 79 2.3 SE 11 15 6 8 1022.9 1022.6 2.2
29/07:30am 20.2 21.0 17.4 84 1.7 ESE 9 11 5 6 1022.6 1022.3 2.2
29/07:00am 18.5 19.6 17.2 92 0.8 ENE 7 9 4 5 1022.2 1021.9 2.2
29/06:30am 16.7 17.4 16.1 96 0.4 ENE 7 9 4 5 1021.9 1021.6 2.2
29/06:00am 14.9 14.9 14.1 95 0.5 E 7 7 4 4 1021.6 1021.3 2.2
29/05:30am 15.2 15.5 14.4 95 0.5 E 6 7 3 4 1021.2 1020.9 2.2
29/05:00am 15.6 15.8 14.8 95 0.5 E 7 9 4 5 1020.9 1020.6 2.2
29/04:30am 15.9 15.9 15.1 95 0.5 E 9 9 5 5 1020.5 1020.2 2.2
29/04:00am 16.1 16.1 15.1 94 0.6 SE 9 11 5 6 1020.2 1019.9 2.2
29/03:30am 15.9 15.8 14.9 94 0.6 E 9 11 5 6 1020.0 1019.7 2.2
29/03:00am 15.4 15.5 14.4 94 0.6 ENE 7 9 4 5 1019.9 1019.6 2.2
29/02:30am 15.5 15.2 14.4 93 0.6 NE 9 11 5 6 1019.7 1019.4 2.2
29/02:00am 15.8 15.2 14.7 93 0.6 NE 11 11 6 6 1019.7 1019.4 2.2
29/01:30am 15.9 15.7 14.8 93 0.6 NE 9 11 5 6 1019.8 1019.5 2.0
29/01:00am 15.6 15.3 14.3 92 0.7 E 9 11 5 6 1019.9 1019.6 2.0
29/12:30am 15.4 15.8 13.8 90 0.9 SSE 4 7 2 4 1020.1 1019.8 2.0
29/12:00am 15.7 15.2 13.7 88 1.1 SSW 9 9 5 5 1020.4 1020.1 1.8
 
Date/Time
WST
Temp
°C
App
Temp
°C
Dew
Point
Rel
Hum
%
Delta-T
°C
Wind Press
QNH
hPa
Press
MSL
hPa
Rain
since 9 am
mm
Dir
 
Spd
km/h
Gust
km/h
Spd
kts
Gust
kts
28/11:30pm 15.3 15.0 13.3 88 1.1 SSW 7 9 4 5 1020.4 1020.1 1.8

Other Formats:

Comma delimited format used in spreadsheet applications
http://www.bom.gov.au/fwo/IDW60801/IDW60801.94647.axf

JavaScript Object Notation format (JSON) in row-major order
http://www.bom.gov.au/fwo/IDW60801/IDW60801.94647.json